Terminal Aerodrome Forecast
Issued by NWS Pocatello, ID

Home | Current Version | Previous Version | Text Only | Print | Product List | Glossary On
Versions: 1 2 3 4 5 6 7 8 9 10 11 12 13 14 15 16 17 18 19 20
000
FTUS45 KPIH 272320
TAFPIH
TAF
KPIH 272320Z 2800/2824 17008KT P6SM -SHRA VCTS BKN050CB BKN140
     FM280100 18010KT P6SM VCSH SCT060 SCT160
     FM280900 18008KT P6SM -SHRA BKN080 BKN120
     FM281700 25008KT P6SM VCTS SCT035CB SCT110 BKN200=

USA.gov is the U.S. government's official web portal to all federal, state and local government web resources and services.